createdAt,value
2018-08-04T00:00:06.941Z,0.00
2018-08-04T00:01:06.734Z,0.00
2018-08-04T00:02:06.804Z,0.00
2018-08-04T00:03:06.744Z,0.00
2018-08-04T00:04:06.753Z,0.00
2018-08-04T00:05:06.763Z,0.00
2018-08-04T00:06:06.969Z,0.00
2018-08-04T00:07:06.774Z,0.00
2018-08-04T00:08:06.790Z,0.00
2018-08-04T00:09:06.790Z,0.00
2018-08-04T00:10:06.998Z,0.00
2018-08-04T00:11:06.804Z,0.00
2018-08-04T00:12:06.812Z,0.00
2018-08-04T00:13:06.820Z,0.00
2018-08-04T00:14:07.027Z,0.00
2018-08-04T00:15:07.034Z,0.00
2018-08-04T00:16:06.839Z,0.00
2018-08-04T00:17:06.849Z,0.00
2018-08-04T00:18:06.864Z,0.00
2018-08-04T00:19:06.875Z,0.00
2018-08-04T00:20:06.869Z,0.00
2018-08-04T00:21:06.878Z,0.00
2018-08-04T00:22:06.896Z,0.00
2018-08-04T00:23:07.103Z,0.00
2018-08-04T00:24:06.914Z,0.00
2018-08-04T00:25:06.905Z,0.00
2018-08-04T00:26:07.128Z,0.00
2018-08-04T00:27:06.954Z,0.00
2018-08-04T00:28:06.939Z,0.00
2018-08-04T00:29:06.935Z,0.00
2018-08-04T00:30:07.142Z,0.00
2018-08-04T00:31:06.947Z,0.00
2018-08-04T00:32:06.953Z,0.00
2018-08-04T00:33:07.176Z,0.00
2018-08-04T00:34:07.166Z,0.00
2018-08-04T00:35:06.975Z,0.00
2018-08-04T00:36:06.980Z,0.00
2018-08-04T00:37:06.989Z,0.00
2018-08-04T00:38:07.024Z,0.00
2018-08-04T00:39:07.015Z,0.00
2018-08-04T00:40:07.012Z,0.00
2018-08-04T00:41:07.079Z,0.00
2018-08-04T00:42:07.027Z,0.00
2018-08-04T00:43:07.229Z,0.00
2018-08-04T00:44:07.034Z,0.00
2018-08-04T00:45:07.043Z,0.00
2018-08-04T00:46:07.250Z,0.00
2018-08-04T00:47:07.055Z,0.00
2018-08-04T00:48:07.265Z,0.00
2018-08-04T00:49:07.080Z,0.00
2018-08-04T00:50:07.089Z,0.00
2018-08-04T00:51:07.092Z,0.00
2018-08-04T00:52:07.114Z,0.00
2018-08-04T00:53:07.110Z,0.00
2018-08-04T00:54:07.114Z,0.00
2018-08-04T00:55:07.112Z,0.00
2018-08-04T00:56:07.115Z,0.00
2018-08-04T00:57:07.122Z,0.00
2018-08-04T00:58:07.131Z,0.00
2018-08-04T00:59:07.138Z,0.00
2018-08-04T01:00:07.153Z,0.00
2018-08-04T01:01:07.364Z,0.00
2018-08-04T01:02:07.155Z,0.00
2018-08-04T01:03:07.161Z,0.00
2018-08-04T01:04:07.169Z,0.00
2018-08-04T01:05:07.185Z,0.00
2018-08-04T01:06:07.181Z,0.00
2018-08-04T01:07:07.185Z,0.00
2018-08-04T01:08:07.198Z,0.00
2018-08-04T01:09:07.212Z,0.00
2018-08-04T01:10:07.408Z,0.00
2018-08-04T01:11:07.415Z,0.00
2018-08-04T01:12:07.231Z,0.00
2018-08-04T01:13:07.428Z,0.00
2018-08-04T01:14:07.233Z,0.00
2018-08-04T01:15:07.440Z,0.00
2018-08-04T01:16:07.246Z,0.00
2018-08-04T01:17:07.251Z,0.00
2018-08-04T01:18:07.260Z,0.00
2018-08-04T01:19:07.280Z,0.00
2018-08-04T01:20:07.271Z,0.00
2018-08-04T01:21:07.478Z,0.00
2018-08-04T01:22:07.489Z,0.00
2018-08-04T01:23:07.291Z,0.00
2018-08-04T01:24:07.297Z,0.00
2018-08-04T01:25:07.517Z,0.00
2018-08-04T01:26:07.308Z,0.00
2018-08-04T01:27:07.516Z,0.00
2018-08-04T01:28:07.522Z,0.00
2018-08-04T01:29:07.531Z,0.00
2018-08-04T01:30:07.544Z,0.00
2018-08-04T01:31:07.343Z,0.00
2018-08-04T01:32:07.348Z,0.00
2018-08-04T01:33:07.382Z,0.00
2018-08-04T01:34:07.394Z,0.00
2018-08-04T01:35:07.576Z,0.00
2018-08-04T01:36:07.372Z,0.00
2018-08-04T01:37:07.411Z,0.00
2018-08-04T01:38:07.393Z,0.00
2018-08-04T01:39:07.393Z,0.00
2018-08-04T01:40:07.409Z,0.00
2018-08-04T01:41:07.612Z,0.00
2018-08-04T01:42:07.417Z,0.00
2018-08-04T01:43:07.412Z,0.00
2018-08-04T01:44:07.419Z,0.00
2018-08-04T01:45:07.425Z,0.00
2018-08-04T01:46:07.444Z,0.00
2018-08-04T01:47:07.436Z,0.00
2018-08-04T01:48:07.649Z,0.00
2018-08-04T01:49:07.660Z,0.00
2018-08-04T01:50:07.453Z,0.00
2018-08-04T01:51:07.471Z,0.00
2018-08-04T01:52:07.484Z,0.00
2018-08-04T01:53:07.694Z,0.00
2018-08-04T01:54:07.696Z,0.00
2018-08-04T01:55:07.484Z,0.00
2018-08-04T01:56:07.511Z,0.00
2018-08-04T01:57:07.497Z,0.00
2018-08-04T01:58:07.534Z,0.00
2018-08-04T01:59:07.788Z,0.00
2018-08-04T02:00:07.715Z,0.00
2018-08-04T02:01:07.752Z,0.00
2018-08-04T02:02:07.526Z,0.00
2018-08-04T02:03:07.753Z,0.00
2018-08-04T02:04:07.535Z,0.00
2018-08-04T02:05:07.745Z,0.00
2018-08-04T02:06:07.548Z,0.00
2018-08-04T02:07:07.615Z,0.00
2018-08-04T02:08:07.562Z,0.00
2018-08-04T02:09:07.571Z,0.00
2018-08-04T02:10:07.573Z,0.00
2018-08-04T02:11:07.591Z,0.00
2018-08-04T02:12:07.787Z,0.00
2018-08-04T02:13:07.602Z,0.00
2018-08-04T02:14:07.626Z,0.00
2018-08-04T02:15:07.607Z,0.00
2018-08-04T02:16:07.824Z,0.00
2018-08-04T02:17:07.818Z,0.00
2018-08-04T02:18:07.618Z,0.00
2018-08-04T02:19:07.656Z,0.00
2018-08-04T02:20:07.651Z,0.00
2018-08-04T02:21:07.654Z,0.00
2018-08-04T02:22:07.868Z,0.00
2018-08-04T02:23:07.862Z,0.00
2018-08-04T02:24:07.668Z,0.00
2018-08-04T02:25:07.874Z,0.00
2018-08-04T02:26:07.668Z,0.00
2018-08-04T02:27:07.674Z,0.00
2018-08-04T02:28:07.880Z,0.00
2018-08-04T02:29:07.689Z,0.00
2018-08-04T02:30:07.693Z,0.00
2018-08-04T02:31:07.709Z,0.00
2018-08-04T02:32:07.705Z,0.00
2018-08-04T02:33:07.709Z,0.00
2018-08-04T02:34:07.916Z,0.00
2018-08-04T02:35:07.719Z,0.00
2018-08-04T02:36:07.741Z,0.00
2018-08-04T02:37:07.733Z,0.00
2018-08-04T02:38:07.765Z,0.00
2018-08-04T02:39:07.759Z,0.00
2018-08-04T02:40:07.967Z,0.00
2018-08-04T02:41:07.759Z,0.00
2018-08-04T02:42:07.762Z,0.00
2018-08-04T02:43:07.798Z,0.00
2018-08-04T02:44:07.776Z,0.00
2018-08-04T02:45:07.782Z,0.00
2018-08-04T02:46:07.797Z,0.00
2018-08-04T02:47:07.796Z,0.00
2018-08-04T02:48:07.798Z,0.00
2018-08-04T02:49:07.805Z,0.00
2018-08-04T02:50:07.822Z,0.00
2018-08-04T02:51:07.815Z,0.00
2018-08-04T02:52:07.824Z,0.00
2018-08-04T02:53:07.830Z,0.00
2018-08-04T02:54:07.833Z,0.00
2018-08-04T02:55:07.855Z,0.00
2018-08-04T02:56:07.858Z,0.00
2018-08-04T02:57:07.856Z,0.00
2018-08-04T02:58:07.862Z,0.00
2018-08-04T02:59:07.908Z,0.00
2018-08-04T03:00:07.873Z,0.00
2018-08-04T03:01:07.882Z,0.00
2018-08-04T03:02:07.886Z,0.00
2018-08-04T03:03:07.892Z,0.00
2018-08-04T03:04:07.898Z,0.00
2018-08-04T03:05:07.914Z,0.00
2018-08-04T03:06:07.909Z,0.00
2018-08-04T03:07:07.930Z,0.00
2018-08-04T03:08:07.923Z,0.00
2018-08-04T03:09:07.953Z,0.00
2018-08-04T03:10:07.962Z,0.00
2018-08-04T03:11:08.150Z,0.00
2018-08-04T03:12:07.950Z,0.00
2018-08-04T03:13:07.954Z,0.00
2018-08-04T03:14:08.160Z,0.00
2018-08-04T03:15:07.964Z,0.00
2018-08-04T03:16:07.971Z,0.00
2018-08-04T03:17:07.978Z,0.00
2018-08-04T03:18:07.986Z,0.00
2018-08-04T03:19:08.190Z,0.00
2018-08-04T03:20:07.994Z,0.00
2018-08-04T03:21:08.001Z,0.00
2018-08-04T03:22:08.013Z,0.00
2018-08-04T03:23:08.013Z,0.00
2018-08-04T03:24:08.019Z,0.00
2018-08-04T03:25:08.025Z,0.00
2018-08-04T03:26:08.041Z,0.00
2018-08-04T03:27:08.241Z,0.00
2018-08-04T03:28:08.054Z,0.00
2018-08-04T03:29:08.254Z,0.00
2018-08-04T03:30:08.258Z,0.00
2018-08-04T03:31:08.076Z,0.00
2018-08-04T03:32:08.081Z,0.00
2018-08-04T03:33:08.084Z,0.00
2018-08-04T03:34:08.089Z,0.00
2018-08-04T03:35:08.085Z,0.00
2018-08-04T03:36:08.299Z,0.00
2018-08-04T03:37:08.124Z,0.00
2018-08-04T03:38:08.133Z,0.00
2018-08-04T03:39:08.109Z,0.00
2018-08-04T03:40:08.143Z,0.00
2018-08-04T03:41:08.137Z,0.00
2018-08-04T03:42:08.156Z,0.00
2018-08-04T03:43:08.152Z,0.00
2018-08-04T03:44:08.150Z,0.00
2018-08-04T03:45:08.165Z,0.00
2018-08-04T03:46:08.157Z,0.00
2018-08-04T03:47:08.159Z,0.00
2018-08-04T03:48:08.166Z,0.00
2018-08-04T03:49:08.173Z,0.00
2018-08-04T03:50:08.186Z,0.00
2018-08-04T03:51:08.196Z,0.00
2018-08-04T03:52:08.190Z,0.00
2018-08-04T03:53:08.214Z,0.00
2018-08-04T03:54:08.401Z,0.00
2018-08-04T03:55:08.233Z,0.00
2018-08-04T03:56:08.212Z,0.00
2018-08-04T03:57:08.217Z,0.00
2018-08-04T03:58:08.222Z,0.00
2018-08-04T03:59:08.240Z,0.00
2018-08-04T04:00:08.454Z,0.00
2018-08-04T04:01:08.453Z,0.00
2018-08-04T04:02:08.247Z,0.00
2018-08-04T04:03:08.459Z,0.00
2018-08-04T04:04:08.262Z,0.00
2018-08-04T04:05:08.266Z,0.00
2018-08-04T04:06:08.280Z,0.00
2018-08-04T04:07:08.276Z,0.00
2018-08-04T04:08:08.485Z,0.00
2018-08-04T04:09:08.300Z,0.00
2018-08-04T04:10:08.496Z,0.00
2018-08-04T04:11:08.304Z,0.00
2018-08-04T04:12:08.318Z,0.00
2018-08-04T04:13:08.318Z,0.00
2018-08-04T04:14:08.322Z,0.00
2018-08-04T04:15:08.328Z,0.00
2018-08-04T04:16:08.341Z,0.00
2018-08-04T04:17:08.347Z,0.00
2018-08-04T04:18:08.559Z,0.00
2018-08-04T04:19:08.364Z,0.00
2018-08-04T04:20:08.355Z,0.00
2018-08-04T04:21:08.369Z,0.00
2018-08-04T04:22:08.576Z,0.00
2018-08-04T04:23:08.371Z,0.00
2018-08-04T04:24:08.579Z,0.00
2018-08-04T04:25:08.388Z,0.00
2018-08-04T04:26:08.389Z,0.00
2018-08-04T04:27:08.597Z,0.00
2018-08-04T04:28:08.404Z,0.00
2018-08-04T04:29:08.620Z,0.00
2018-08-04T04:30:08.416Z,0.00
2018-08-04T04:31:08.621Z,0.00
2018-08-04T04:32:08.425Z,0.00
2018-08-04T04:33:08.433Z,0.00
2018-08-04T04:34:08.438Z,0.00
2018-08-04T04:35:08.452Z,0.00
2018-08-04T04:36:08.478Z,0.00
2018-08-04T04:37:08.659Z,0.00
2018-08-04T04:38:08.461Z,0.00
2018-08-04T04:39:08.469Z,0.00
2018-08-04T04:40:08.679Z,0.00
2018-08-04T04:41:08.481Z,0.00
2018-08-04T04:42:08.498Z,0.00
2018-08-04T04:43:08.504Z,0.00
2018-08-04T04:44:08.700Z,0.00
2018-08-04T04:45:08.721Z,0.00
2018-08-04T04:46:08.523Z,0.00
2018-08-04T04:47:08.534Z,0.00
2018-08-04T04:48:08.751Z,0.00
2018-08-04T04:49:08.732Z,0.00
2018-08-04T04:50:08.548Z,0.00
2018-08-04T04:51:08.543Z,0.00
2018-08-04T04:52:08.564Z,0.00
2018-08-04T04:53:08.555Z,0.00
2018-08-04T04:54:08.763Z,0.00
2018-08-04T04:55:08.588Z,0.00
2018-08-04T04:56:08.776Z,0.00
2018-08-04T04:57:08.612Z,0.00
2018-08-04T04:58:08.622Z,0.00
2018-08-04T04:59:08.604Z,0.00
2018-08-04T05:00:08.815Z,0.00
2018-08-04T05:01:08.607Z,0.00
2018-08-04T05:02:08.678Z,0.00
2018-08-04T05:03:08.834Z,0.00
2018-08-04T05:04:08.828Z,0.00
2018-08-04T05:05:08.657Z,0.00
2018-08-04T05:06:08.839Z,0.00
2018-08-04T05:07:08.653Z,0.00
2018-08-04T05:08:08.881Z,0.00
2018-08-04T05:09:08.680Z,0.00
2018-08-04T05:10:08.666Z,0.00
2018-08-04T05:11:08.684Z,0.00
2018-08-04T05:12:08.891Z,0.00
2018-08-04T05:13:08.682Z,0.00
2018-08-04T05:14:08.702Z,0.00
2018-08-04T05:15:08.698Z,0.00
2018-08-04T05:16:08.718Z,0.00
2018-08-04T05:17:08.707Z,0.00
2018-08-04T05:18:08.713Z,0.00
2018-08-04T05:19:08.719Z,0.00
2018-08-04T05:20:08.726Z,0.00
2018-08-04T05:21:08.743Z,5.63
2018-08-04T05:22:08.748Z,5.63
2018-08-04T05:23:08.771Z,5.63
2018-08-04T05:24:08.760Z,5.63
2018-08-04T05:25:08.774Z,5.63
2018-08-04T05:26:08.776Z,5.63
2018-08-04T05:27:08.778Z,5.63
2018-08-04T05:28:08.988Z,5.63
2018-08-04T05:29:08.781Z,5.63
2018-08-04T05:30:08.797Z,5.63
2018-08-04T05:31:08.791Z,5.63
2018-08-04T05:32:08.872Z,5.63
2018-08-04T05:33:08.806Z,5.63
2018-08-04T05:34:09.024Z,5.63
2018-08-04T05:35:08.818Z,5.63
2018-08-04T05:36:09.025Z,5.63
2018-08-04T05:37:08.832Z,5.63
2018-08-04T05:38:08.845Z,5.63
2018-08-04T05:39:08.857Z,5.63
2018-08-04T05:40:09.049Z,5.63
2018-08-04T05:41:08.854Z,5.63
2018-08-04T05:42:08.858Z,5.63
2018-08-04T05:43:08.912Z,5.63
2018-08-04T05:44:08.872Z,5.63
2018-08-04T05:45:08.878Z,5.63
2018-08-04T05:46:08.892Z,5.63
2018-08-04T05:47:09.120Z,5.63
2018-08-04T05:48:09.107Z,5.63
2018-08-04T05:49:09.133Z,5.63
2018-08-04T05:50:08.918Z,5.63
2018-08-04T05:51:08.914Z,5.63
2018-08-04T05:52:08.919Z,5.63
2018-08-04T05:53:08.925Z,5.63
2018-08-04T05:54:08.931Z,5.63
2018-08-04T05:55:08.949Z,5.63
2018-08-04T05:56:09.161Z,5.63
2018-08-04T05:57:09.183Z,11.25
2018-08-04T05:58:09.173Z,5.63
2018-08-04T05:59:08.979Z,5.63
2018-08-04T06:00:08.968Z,5.63
2018-08-04T06:01:08.987Z,5.63
2018-08-04T06:02:08.979Z,5.63
2018-08-04T06:03:09.034Z,5.63
2018-08-04T06:04:09.197Z,5.63
2018-08-04T06:05:09.199Z,5.63
2018-08-04T06:06:09.217Z,5.63
2018-08-04T06:07:09.009Z,5.63
2018-08-04T06:08:09.017Z,5.63
2018-08-04T06:09:09.032Z,5.63
2018-08-04T06:10:09.259Z,5.63
2018-08-04T06:11:09.039Z,5.63
2018-08-04T06:12:09.070Z,5.63
2018-08-04T06:13:09.066Z,5.63
2018-08-04T06:14:09.051Z,5.63
2018-08-04T06:15:09.289Z,5.63
2018-08-04T06:16:09.095Z,11.25
2018-08-04T06:17:09.072Z,11.25
2018-08-04T06:18:09.079Z,11.25
2018-08-04T06:19:09.090Z,11.25
2018-08-04T06:20:09.106Z,11.25
2018-08-04T06:21:09.297Z,11.25
2018-08-04T06:22:09.189Z,11.25
2018-08-04T06:23:09.110Z,11.25
2018-08-04T06:24:09.318Z,11.25
2018-08-04T06:25:09.122Z,11.25
2018-08-04T06:26:09.127Z,16.88
2018-08-04T06:27:09.133Z,22.50
2018-08-04T06:28:09.159Z,22.50
2018-08-04T06:29:09.157Z,22.50
2018-08-04T06:30:09.153Z,22.50
2018-08-04T06:31:09.170Z,22.50
2018-08-04T06:32:09.176Z,28.13
2018-08-04T06:33:09.372Z,33.75
2018-08-04T06:34:09.179Z,28.13
2018-08-04T06:35:09.211Z,61.88
2018-08-04T06:36:09.396Z,50.63
2018-08-04T06:37:09.197Z,56.25
2018-08-04T06:38:09.416Z,61.88
2018-08-04T06:39:09.208Z,90.00
2018-08-04T06:40:09.214Z,56.25
2018-08-04T06:41:09.424Z,28.13
2018-08-04T06:42:09.259Z,28.13
2018-08-04T06:43:09.253Z,50.63
2018-08-04T06:44:09.268Z,123.75
2018-08-04T06:45:09.246Z,73.13
2018-08-04T06:46:09.453Z,95.63
2018-08-04T06:47:09.261Z,39.38
2018-08-04T06:48:09.467Z,22.50
2018-08-04T06:49:09.274Z,22.50
2018-08-04T06:50:09.278Z,22.50
2018-08-04T06:51:09.486Z,22.50
2018-08-04T06:52:09.300Z,22.50
2018-08-04T06:53:09.307Z,28.13
2018-08-04T06:54:09.314Z,22.50
2018-08-04T06:55:09.339Z,33.75
2018-08-04T06:56:09.533Z,22.50
2018-08-04T06:57:09.521Z,22.50
2018-08-04T06:58:09.325Z,22.50
2018-08-04T06:59:09.343Z,22.50
2018-08-04T07:00:09.341Z,16.88
2018-08-04T07:01:09.357Z,16.88
2018-08-04T07:02:09.351Z,22.50
2018-08-04T07:03:09.561Z,22.50
2018-08-04T07:04:09.367Z,22.50
2018-08-04T07:05:09.583Z,22.50
2018-08-04T07:06:09.376Z,22.50
2018-08-04T07:07:09.382Z,28.13
2018-08-04T07:08:09.407Z,28.13
2018-08-04T07:09:09.606Z,33.75
2018-08-04T07:10:09.400Z,95.63
2018-08-04T07:11:09.408Z,78.75
2018-08-04T07:12:09.422Z,73.13
2018-08-04T07:13:09.433Z,90.00
2018-08-04T07:14:09.439Z,73.13
2018-08-04T07:15:09.441Z,84.38
2018-08-04T07:16:09.439Z,45.00
2018-08-04T07:17:09.463Z,39.38
2018-08-04T07:18:09.461Z,33.75
2018-08-04T07:19:09.456Z,39.38
2018-08-04T07:20:09.463Z,39.38
2018-08-04T07:21:09.481Z,56.25
2018-08-04T07:22:09.475Z,123.75
2018-08-04T07:23:09.480Z,230.63
2018-08-04T07:24:09.488Z,472.50
2018-08-04T07:25:09.505Z,675.00
2018-08-04T07:26:09.521Z,534.38
2018-08-04T07:27:09.520Z,669.38
2018-08-04T07:28:09.514Z,523.13
2018-08-04T07:29:09.581Z,393.75
2018-08-04T07:30:09.728Z,343.13
2018-08-04T07:31:09.550Z,427.50
2018-08-04T07:32:09.550Z,410.63
2018-08-04T07:33:09.750Z,258.75
2018-08-04T07:34:09.604Z,135.00
2018-08-04T07:35:09.561Z,73.13
2018-08-04T07:36:09.579Z,78.75
2018-08-04T07:37:09.575Z,39.38
2018-08-04T07:38:09.682Z,39.38
2018-08-04T07:39:09.587Z,28.13
2018-08-04T07:40:09.599Z,28.13
2018-08-04T07:41:09.602Z,28.13
2018-08-04T07:42:09.608Z,28.13
2018-08-04T07:43:09.616Z,28.13
2018-08-04T07:44:09.827Z,33.75
2018-08-04T07:45:09.657Z,90.00
2018-08-04T07:46:09.852Z,157.50
2018-08-04T07:47:09.643Z,118.13
2018-08-04T07:48:09.651Z,354.38
2018-08-04T07:49:09.685Z,551.25
2018-08-04T07:50:09.884Z,337.50
2018-08-04T07:51:09.885Z,95.63
2018-08-04T07:52:09.684Z,50.63
2018-08-04T07:53:09.681Z,73.13
2018-08-04T07:54:09.688Z,202.50
2018-08-04T07:55:09.694Z,196.88
2018-08-04T07:56:09.905Z,95.63
2018-08-04T07:57:09.718Z,45.00
2018-08-04T07:58:09.716Z,45.00
2018-08-04T07:59:09.922Z,61.88
2018-08-04T08:00:09.951Z,410.63
2018-08-04T08:01:09.763Z,770.63
2018-08-04T08:02:09.751Z,905.63
2018-08-04T08:03:09.749Z,697.50
2018-08-04T08:04:09.959Z,393.75
2018-08-04T08:05:09.789Z,50.63
2018-08-04T08:06:09.967Z,112.50
2018-08-04T08:07:09.987Z,343.13
2018-08-04T08:08:09.782Z,579.38
2018-08-04T08:09:09.786Z,551.25
2018-08-04T08:10:09.792Z,320.63
2018-08-04T08:11:09.901Z,106.88
2018-08-04T08:12:09.808Z,219.38
2018-08-04T08:13:09.830Z,281.25
2018-08-04T08:14:10.039Z,427.50
2018-08-04T08:15:09.826Z,551.25
2018-08-04T08:16:09.845Z,489.38
2018-08-04T08:17:09.843Z,185.63
2018-08-04T08:18:09.851Z,50.63
2018-08-04T08:19:09.860Z,45.00
2018-08-04T08:20:10.065Z,50.63
2018-08-04T08:21:09.883Z,61.88
2018-08-04T08:22:10.077Z,50.63
2018-08-04T08:23:09.893Z,61.88
2018-08-04T08:24:10.091Z,61.88
2018-08-04T08:25:09.916Z,50.63
2018-08-04T08:26:10.105Z,61.88
2018-08-04T08:27:09.920Z,601.88
2018-08-04T08:28:10.134Z,1130.63
2018-08-04T08:29:10.126Z,1575.00
2018-08-04T08:30:09.932Z,1575.00
2018-08-04T08:31:09.985Z,1023.75
2018-08-04T08:32:09.944Z,73.13
2018-08-04T08:33:09.956Z,241.88
2018-08-04T08:34:10.177Z,56.25
2018-08-04T08:35:10.177Z,67.50
2018-08-04T08:36:10.176Z,39.38
2018-08-04T08:37:09.982Z,45.00
2018-08-04T08:38:09.998Z,45.00
2018-08-04T08:39:10.197Z,45.00
2018-08-04T08:40:10.014Z,45.00
2018-08-04T08:41:10.229Z,61.88
2018-08-04T08:42:10.016Z,56.25
2018-08-04T08:43:10.039Z,39.38
2018-08-04T08:44:10.058Z,39.38
2018-08-04T08:45:10.243Z,73.13
2018-08-04T08:46:10.251Z,208.13
2018-08-04T08:47:10.098Z,39.38
2018-08-04T08:48:10.068Z,39.38
2018-08-04T08:49:10.072Z,33.75
2018-08-04T08:50:10.081Z,39.38
2018-08-04T08:51:10.302Z,33.75
2018-08-04T08:52:10.296Z,33.75
2018-08-04T08:53:10.379Z,33.75
2018-08-04T08:54:10.307Z,33.75
2018-08-04T08:55:10.118Z,33.75
2018-08-04T08:56:10.330Z,33.75
2018-08-04T08:57:10.338Z,33.75
2018-08-04T08:58:10.143Z,33.75
2018-08-04T08:59:10.149Z,33.75
2018-08-04T09:00:10.358Z,33.75
2018-08-04T09:01:10.167Z,33.75
2018-08-04T09:02:10.182Z,33.75
2018-08-04T09:03:10.181Z,33.75
2018-08-04T09:04:10.201Z,33.75
2018-08-04T09:05:10.203Z,33.75
2018-08-04T09:06:10.200Z,28.13
2018-08-04T09:07:10.210Z,33.75
2018-08-04T09:08:10.226Z,28.13
2018-08-04T09:09:10.223Z,33.75
2018-08-04T09:10:10.431Z,33.75
2018-08-04T09:11:10.453Z,28.13
2018-08-04T09:12:10.256Z,28.13
2018-08-04T09:13:10.254Z,28.13
2018-08-04T09:14:10.259Z,28.13
2018-08-04T09:15:10.279Z,28.13
2018-08-04T09:16:10.272Z,28.13
2018-08-04T09:17:10.280Z,28.13
2018-08-04T09:18:10.289Z,28.13
2018-08-04T09:19:10.500Z,28.13
2018-08-04T09:20:10.313Z,28.13
2018-08-04T09:21:10.309Z,28.13
2018-08-04T09:22:10.318Z,28.13
2018-08-04T09:23:10.396Z,28.13
2018-08-04T09:24:10.343Z,22.50
2018-08-04T09:25:10.340Z,22.50
2018-08-04T09:26:10.344Z,22.50
2018-08-04T09:27:10.363Z,22.50
2018-08-04T09:28:10.360Z,22.50
2018-08-04T09:29:10.568Z,22.50
2018-08-04T09:30:10.379Z,22.50
2018-08-04T09:31:10.398Z,22.50
2018-08-04T09:32:10.387Z,22.50
2018-08-04T09:33:10.396Z,22.50
2018-08-04T09:34:10.416Z,22.50
2018-08-04T09:35:10.412Z,22.50
2018-08-04T09:36:10.428Z,22.50
2018-08-04T09:37:10.628Z,22.50
2018-08-04T09:38:10.450Z,22.50
2018-08-04T09:39:10.498Z,22.50
2018-08-04T09:40:10.448Z,22.50
2018-08-04T09:41:10.453Z,22.50
2018-08-04T09:42:10.672Z,22.50
2018-08-04T09:43:10.480Z,22.50
2018-08-04T09:44:10.485Z,22.50
2018-08-04T09:45:10.682Z,22.50
2018-08-04T09:46:10.497Z,22.50
2018-08-04T09:47:10.522Z,22.50
2018-08-04T09:48:10.521Z,22.50
2018-08-04T09:49:10.713Z,22.50
2018-08-04T09:50:10.531Z,22.50
2018-08-04T09:51:10.533Z,22.50
2018-08-04T09:52:10.534Z,22.50
2018-08-04T09:53:10.541Z,22.50
2018-08-04T09:54:10.748Z,22.50
2018-08-04T09:55:10.556Z,22.50
2018-08-04T09:56:10.561Z,22.50
2018-08-04T09:57:10.578Z,22.50
2018-08-04T09:58:10.574Z,16.88
2018-08-04T09:59:10.582Z,22.50
2018-08-04T10:00:10.589Z,16.88
2018-08-04T10:01:10.596Z,16.88
2018-08-04T10:02:10.615Z,16.88
2018-08-04T10:03:10.827Z,16.88
2018-08-04T10:04:10.628Z,16.88
2018-08-04T10:05:10.628Z,16.88
2018-08-04T10:06:10.630Z,16.88
2018-08-04T10:07:10.865Z,16.88
2018-08-04T10:08:10.662Z,16.88
2018-08-04T10:09:10.913Z,16.88
2018-08-04T10:10:10.660Z,16.88
2018-08-04T10:11:10.873Z,16.88
2018-08-04T10:12:10.675Z,16.88
2018-08-04T10:13:10.682Z,16.88
2018-08-04T10:14:10.687Z,16.88
2018-08-04T10:15:10.696Z,16.88
2018-08-04T10:16:10.703Z,16.88
2018-08-04T10:17:10.710Z,16.88
2018-08-04T10:18:10.924Z,16.88
2018-08-04T10:19:10.724Z,16.88
2018-08-04T10:20:10.749Z,16.88
2018-08-04T10:21:10.741Z,16.88
2018-08-04T10:22:10.949Z,16.88
2018-08-04T10:23:10.754Z,16.88
2018-08-04T10:24:10.760Z,16.88
2018-08-04T10:25:10.985Z,16.88
2018-08-04T10:26:10.778Z,16.88
2018-08-04T10:27:10.793Z,16.88
2018-08-04T10:28:10.790Z,16.88
2018-08-04T10:29:11.025Z,16.88
2018-08-04T10:30:10.823Z,16.88
2018-08-04T10:31:10.829Z,16.88
2018-08-04T10:32:11.125Z,16.88
2018-08-04T10:33:11.038Z,16.88
2018-08-04T10:34:10.834Z,16.88
2018-08-04T10:35:11.040Z,16.88
2018-08-04T10:36:10.862Z,16.88
2018-08-04T10:37:10.872Z,16.88
2018-08-04T10:38:10.876Z,16.88
2018-08-04T10:39:10.868Z,16.88
2018-08-04T10:40:11.079Z,16.88
2018-08-04T10:41:10.892Z,16.88
2018-08-04T10:42:10.890Z,16.88
2018-08-04T10:43:10.926Z,16.88
2018-08-04T10:44:10.903Z,16.88
2018-08-04T10:45:10.927Z,16.88
2018-08-04T10:46:10.945Z,16.88
2018-08-04T10:47:10.926Z,16.88
2018-08-04T10:48:10.933Z,16.88
2018-08-04T10:49:10.943Z,16.88
2018-08-04T10:50:10.963Z,16.88
2018-08-04T10:51:11.156Z,16.88
2018-08-04T10:52:11.165Z,16.88
2018-08-04T10:53:10.972Z,16.88
2018-08-04T10:54:10.978Z,16.88
2018-08-04T10:55:10.985Z,16.88
2018-08-04T10:56:11.002Z,16.88
2018-08-04T10:57:10.999Z,16.88
2018-08-04T10:58:11.028Z,16.88
2018-08-04T10:59:11.039Z,16.88
2018-08-04T11:00:11.024Z,16.88
2018-08-04T11:01:11.045Z,16.88
2018-08-04T11:02:11.061Z,16.88
2018-08-04T11:03:11.059Z,16.88
2018-08-04T11:04:11.051Z,16.88
2018-08-04T11:05:11.059Z,16.88
2018-08-04T11:06:11.076Z,16.88
2018-08-04T11:07:11.285Z,16.88
2018-08-04T11:08:11.096Z,16.88
2018-08-04T11:09:11.106Z,16.88
2018-08-04T11:10:11.112Z,16.88
2018-08-04T11:11:11.330Z,16.88
2018-08-04T11:12:11.121Z,16.88
2018-08-04T11:13:11.119Z,16.88
2018-08-04T11:14:11.136Z,16.88
2018-08-04T11:15:11.145Z,16.88
2018-08-04T11:16:11.151Z,16.88
2018-08-04T11:17:11.150Z,16.88
2018-08-04T11:18:11.233Z,16.88
2018-08-04T11:19:11.365Z,16.88
2018-08-04T11:20:11.171Z,16.88
2018-08-04T11:21:11.179Z,16.88
2018-08-04T11:22:11.386Z,16.88
2018-08-04T11:23:11.205Z,16.88
2018-08-04T11:24:11.356Z,16.88
2018-08-04T11:25:11.432Z,16.88
2018-08-04T11:26:11.214Z,16.88
2018-08-04T11:27:11.426Z,16.88
2018-08-04T11:28:11.243Z,16.88
2018-08-04T11:29:11.442Z,16.88
2018-08-04T11:30:11.245Z,16.88
2018-08-04T11:31:11.255Z,16.88
2018-08-04T11:32:11.277Z,16.88
2018-08-04T11:33:11.269Z,16.88
2018-08-04T11:34:11.276Z,16.88
2018-08-04T11:35:11.297Z,16.88
2018-08-04T11:36:11.294Z,16.88
2018-08-04T11:37:11.301Z,16.88
2018-08-04T11:38:11.511Z,16.88
2018-08-04T11:39:11.516Z,16.88
2018-08-04T11:40:11.332Z,16.88
2018-08-04T11:41:11.329Z,16.88
2018-08-04T11:42:11.350Z,16.88
2018-08-04T11:43:11.343Z,16.88
2018-08-04T11:44:11.353Z,16.88
2018-08-04T11:45:11.393Z,16.88
2018-08-04T11:46:11.382Z,11.25
2018-08-04T11:47:11.388Z,11.25
2018-08-04T11:48:11.588Z,11.25
2018-08-04T11:49:11.393Z,11.25
2018-08-04T11:50:11.404Z,11.25
2018-08-04T11:51:11.407Z,11.25
2018-08-04T11:52:11.415Z,11.25
2018-08-04T11:53:11.424Z,11.25
2018-08-04T11:54:11.431Z,11.25
2018-08-04T11:55:11.443Z,11.25
2018-08-04T11:56:11.446Z,11.25
2018-08-04T11:57:11.673Z,11.25
2018-08-04T11:58:11.678Z,11.25
2018-08-04T11:59:11.470Z,11.25
2018-08-04T12:00:11.507Z,11.25
2018-08-04T12:01:11.501Z,11.25
2018-08-04T12:02:11.710Z,11.25
2018-08-04T12:03:11.515Z,11.25
2018-08-04T12:04:11.524Z,11.25
2018-08-04T12:05:11.720Z,11.25
2018-08-04T12:06:11.538Z,11.25
2018-08-04T12:07:11.547Z,11.25
2018-08-04T12:08:11.544Z,11.25
2018-08-04T12:09:11.778Z,11.25
2018-08-04T12:10:11.579Z,5.63
2018-08-04T12:11:11.732Z,11.25
2018-08-04T12:12:11.776Z,11.25
2018-08-04T12:13:11.595Z,11.25
2018-08-04T12:14:11.598Z,11.25
2018-08-04T12:15:11.597Z,5.63
2018-08-04T12:16:11.614Z,11.25
2018-08-04T12:17:11.826Z,11.25
2018-08-04T12:18:11.638Z,11.25
2018-08-04T12:19:11.629Z,5.63
2018-08-04T12:20:11.643Z,5.63
2018-08-04T12:21:11.644Z,5.63
2018-08-04T12:22:11.869Z,5.63
2018-08-04T12:23:11.713Z,5.63
2018-08-04T12:24:11.885Z,5.63
2018-08-04T12:25:11.677Z,5.63
2018-08-04T12:26:11.692Z,5.63
2018-08-04T12:27:11.692Z,5.63
2018-08-04T12:28:11.714Z,5.63
2018-08-04T12:29:11.921Z,5.63
2018-08-04T12:30:11.916Z,5.63
2018-08-04T12:31:11.925Z,5.63
2018-08-04T12:32:11.947Z,5.63
2018-08-04T12:33:11.742Z,5.63
2018-08-04T12:34:11.748Z,5.63
2018-08-04T12:35:11.771Z,5.63
2018-08-04T12:36:11.764Z,5.63
2018-08-04T12:37:11.787Z,5.63
2018-08-04T12:38:11.787Z,5.63
2018-08-04T12:39:11.786Z,5.63
2018-08-04T12:40:11.794Z,5.63
2018-08-04T12:41:11.803Z,5.63
2018-08-04T12:42:11.808Z,5.63
2018-08-04T12:43:11.826Z,5.63
2018-08-04T12:44:11.825Z,5.63
2018-08-04T12:45:11.845Z,5.63
2018-08-04T12:46:11.843Z,5.63
2018-08-04T12:47:12.052Z,5.63
2018-08-04T12:48:12.069Z,5.63
2018-08-04T12:49:11.868Z,5.63
2018-08-04T12:50:12.088Z,5.63
2018-08-04T12:51:11.882Z,5.63
2018-08-04T12:52:11.890Z,5.63
2018-08-04T12:53:11.898Z,5.63
2018-08-04T12:54:11.905Z,5.63
2018-08-04T12:55:11.924Z,5.63
2018-08-04T12:56:12.139Z,5.63
2018-08-04T12:57:11.940Z,5.63
2018-08-04T12:58:11.952Z,5.63
2018-08-04T12:59:11.947Z,5.63
2018-08-04T13:00:11.952Z,5.63
2018-08-04T13:01:12.003Z,5.63
2018-08-04T13:02:11.968Z,5.63
2018-08-04T13:03:11.977Z,5.63
2018-08-04T13:04:11.985Z,5.63